CYED/YED METAR and TAF weather

Enter ICAO airport designator
Station Type Date Time Source
CYED METAR 2019/10/21 22:00 UTC NOAA

CYED 212200Z AUTO 24005KT 9SM FEW029 FEW034 05/M01 A2991 RMK SLP157


Station Type Date Time Source
CYED Decoded METAR 2019/10/21 22:00 UTC NOAA

Edmonton Namao Alta., Canada (CYED) 53-40N 113-28W 688M
Oct 21, 2019 - 06:00 PM EDT / 2019.10.21 2200 UTC
Wind: from the WSW (240 degrees) at 6 MPH (5 KT):0
Visibility: 9 mile(s):0
Sky conditions: mostly clear
Temperature: 41 F (5 C)
Dew Point: 30 F (-1 C)
Relative Humidity: 65%
Pressure (altimeter): 29.91 in. Hg (1012 hPa)
ob: CYED 212200Z AUTO 24005KT 9SM FEW029 FEW034 05/M01 A2991 RMK SLP157
cycle: 22

Station Type Date Time Source
CYED TAF 2019/10/21 20:15 UTC NOAA

TAF
AMD TAF
AMD CYED 212013Z 2120/2206 VRB03KT P6SM SCT020 BKN060
TEMPO 2120/2124 BKN020 OVC060
FM220000 VRB03KT P6SM SCT030
RMK NXT FCST BY 220000Z

Example: see airport list